Dades meteomassalio
Diari Summary for Diciembre 3, 2017 Units:  Metric    English   Both
« Previous Day
Next Day »
Diari Semanal Mensual Anual Personalitzat
  Maxima: Minima: Mijana:
Temperatura: 8.9 °C -2.8 °C 3.5 °C
Rosada: -2.4 °C -9.5 °C -6.9 °C
Humitat: 73 % 30 % 49 %
Velocitat del vent: 42.6 km/h 1.9 km/h 23.3 km/h
Racha vent: 42.6 km/h - -
Vent:- - NW
Pressio: 1034.4 hPa 1025.3 hPa -
Pluja: 0.0 mm    
Historical Graphs
 
 
Tabular Data for Diciembre 3, 2017
Time Temperature Dew Point Pressure Wind Wind Speed Wind Gust Humidity Rainfall Rate (Hourly) solar Conditions
00:04 1.1 °C -4.6 °C 1025.3 hPa WNW 33.3 km/h 33.3 km/h 66 % 0.0 mm 0.0 W/m2 CLR
00:14 1.1 °C -4.6 °C 1025.3 hPa WNW 29.6 km/h 29.6 km/h 66 % 0.0 mm 0.0 W/m2 CLR
00:19 1.1 °C -4.6 °C 1025.3 hPa NNW 24.1 km/h 24.1 km/h 66 % 0.0 mm 0.0 W/m2 CLR
00:24 1.7 °C -4.0 °C 1025.6 hPa NW 18.5 km/h 18.5 km/h 66 % 0.0 mm 0.0 W/m2 CLR
00:29 1.1 °C -4.6 °C 1025.6 hPa WNW 24.1 km/h 24.1 km/h 66 % 0.0 mm 0.0 W/m2 CLR
00:34 1.1 °C -4.7 °C 1025.6 hPa NW 16.7 km/h 16.7 km/h 65 % 0.0 mm 0.0 W/m2 CLR
00:39 1.1 °C -4.7 °C 1025.6 hPa NW 22.5 km/h 22.5 km/h 65 % 0.0 mm 0.0 W/m2 CLR
00:49 1.1 °C -4.7 °C 1026.0 hPa NW 18.5 km/h 18.5 km/h 65 % 0.0 mm 0.0 W/m2 CLR
01:05 1.1 °C -4.9 °C 1026.0 hPa West 18.5 km/h 18.5 km/h 64 % 0.0 mm 0.0 W/m2 CLR
01:10 1.1 °C -5.2 °C 1026.0 hPa WNW 11.3 km/h 11.4 km/h 63 % 0.0 mm 0.0 W/m2 CLR
01:15 1.1 °C -5.2 °C 1026.0 hPa WNW 16.1 km/h 16.1 km/h 63 % 0.0 mm 0.0 W/m2 CLR
01:20 1.1 °C -5.2 °C 1026.3 hPa WNW 14.8 km/h 14.8 km/h 63 % 0.0 mm 0.0 W/m2 CLR
01:25 1.1 °C -5.4 °C 1026.0 hPa West 18.5 km/h 18.5 km/h 62 % 0.0 mm 0.0 W/m2 CLR
01:30 1.1 °C -5.4 °C 1026.0 hPa NW 19.3 km/h 19.3 km/h 62 % 0.0 mm 0.0 W/m2 CLR
01:40 1.1 °C -5.6 °C 1026.0 hPa WNW 24.1 km/h 24.1 km/h 61 % 0.0 mm 0.0 W/m2 CLR
01:45 1.1 °C -5.8 °C 1026.0 hPa NW 20.4 km/h 20.4 km/h 60 % 0.0 mm 0.0 W/m2 CLR
01:55 1.1 °C -5.8 °C 1026.0 hPa NW 20.9 km/h 20.9 km/h 60 % 0.0 mm 0.0 W/m2 CLR
02:00 1.1 °C -5.8 °C 1026.0 hPa NW 24.1 km/h 24.1 km/h 60 % 0.0 mm 0.0 W/m2 CLR
02:05 1.1 °C -5.8 °C 1026.0 hPa NW 24.1 km/h 24.1 km/h 60 % 0.0 mm 0.0 W/m2 CLR
02:10 1.1 °C -5.8 °C 1026.0 hPa NW 24.1 km/h 24.1 km/h 60 % 0.0 mm 0.0 W/m2 CLR
02:15 1.1 °C -5.8 °C 1026.0 hPa NW 31.5 km/h 31.5 km/h 60 % 0.0 mm 0.0 W/m2 CLR
02:25 1.1 °C -5.8 °C 1026.0 hPa NW 27.8 km/h 27.8 km/h 60 % 0.0 mm 0.0 W/m2 CLR
02:35 1.1 °C -5.6 °C 1026.0 hPa WNW 25.9 km/h 25.9 km/h 61 % 0.0 mm 0.0 W/m2 CLR
02:40 1.1 °C -5.6 °C 1026.3 hPa NW 22.2 km/h 22.2 km/h 61 % 0.0 mm 0.0 W/m2 CLR
02:50 1.1 °C -5.8 °C 1026.3 hPa West 20.4 km/h 20.4 km/h 60 % 0.0 mm 0.0 W/m2 CLR
03:00 1.1 °C -5.8 °C 1026.3 hPa WNW 20.4 km/h 20.4 km/h 60 % 0.0 mm 0.0 W/m2 CLR
03:05 1.1 °C -5.8 °C 1026.3 hPa NW 18.5 km/h 18.5 km/h 60 % 0.0 mm 0.0 W/m2 CLR
03:15 1.1 °C -5.8 °C 1026.6 hPa WNW 14.8 km/h 14.8 km/h 60 % 0.0 mm 0.0 W/m2 CLR
03:20 1.1 °C -5.8 °C 1026.6 hPa WNW 11.1 km/h 11.1 km/h 60 % 0.0 mm 0.0 W/m2 CLR
03:26 1.1 °C -5.8 °C 1026.6 hPa WNW 13.0 km/h 13.0 km/h 60 % 0.0 mm 0.0 W/m2 CLR
03:31 1.1 °C -5.8 °C 1026.6 hPa WNW 14.8 km/h 14.8 km/h 60 % 0.0 mm 0.0 W/m2 CLR
03:36 1.1 °C -5.8 °C 1026.6 hPa NNW 14.8 km/h 14.8 km/h 60 % 0.0 mm 0.0 W/m2 CLR
03:41 0.6 °C -6.1 °C 1026.6 hPa WNW 16.7 km/h 16.7 km/h 61 % 0.0 mm 0.0 W/m2 CLR
03:47 1.1 °C -5.6 °C 1026.6 hPa WNW 18.5 km/h 18.5 km/h 61 % 0.0 mm 0.0 W/m2 CLR
03:52 1.1 °C -5.6 °C 1026.6 hPa WNW 18.5 km/h 18.5 km/h 61 % 0.0 mm 0.0 W/m2 CLR
03:57 1.1 °C -5.8 °C 1026.6 hPa WNW 20.4 km/h 20.4 km/h 60 % 0.0 mm 0.0 W/m2 CLR
04:02 1.1 °C -5.6 °C 1026.6 hPa NW 22.5 km/h 22.5 km/h 61 % 0.0 mm 0.0 W/m2 CLR
04:07 1.1 °C -5.6 °C 1027.0 hPa NW 25.9 km/h 25.9 km/h 61 % 0.0 mm 0.0 W/m2 CLR
04:12 1.1 °C -5.6 °C 1027.0 hPa NW 18.5 km/h 18.5 km/h 61 % 0.0 mm 0.0 W/m2 CLR
04:22 1.1 °C -5.6 °C 1026.6 hPa WNW 20.4 km/h 20.4 km/h 61 % 0.0 mm 0.0 W/m2 CLR
04:27 1.1 °C -5.6 °C 1026.6 hPa WNW 24.1 km/h 24.1 km/h 61 % 0.0 mm 0.0 W/m2 CLR
04:32 1.1 °C -5.6 °C 1026.6 hPa WNW 18.5 km/h 18.5 km/h 61 % 0.0 mm 0.0 W/m2 CLR
05:17 1.1 °C -5.8 °C 1027.3 hPa WNW 29.6 km/h 29.6 km/h 60 % 0.0 mm 0.0 W/m2 CLR
05:22 1.1 °C -6.0 °C 1027.3 hPa WNW 35.2 km/h 35.2 km/h 59 % 0.0 mm 0.0 W/m2 CLR
05:27 1.1 °C -6.0 °C 1027.3 hPa WNW 22.2 km/h 22.2 km/h 59 % 0.0 mm 0.0 W/m2 CLR
05:32 1.1 °C -6.0 °C 1027.3 hPa WSW 14.8 km/h 14.8 km/h 59 % 0.0 mm 0.0 W/m2 CLR
05:42 1.1 °C -5.8 °C 1027.3 hPa WNW 24.1 km/h 24.1 km/h 60 % 0.0 mm 0.0 W/m2 CLR
05:47 0.6 °C -6.6 °C 1027.3 hPa WNW 18.5 km/h 18.5 km/h 59 % 0.0 mm 0.0 W/m2 CLR
05:52 0.6 °C -6.6 °C 1027.3 hPa WNW 25.9 km/h 25.9 km/h 59 % 0.0 mm 0.0 W/m2 CLR
06:02 0.6 °C -6.8 °C 1027.3 hPa WNW 24.1 km/h 24.1 km/h 58 % 0.0 mm 0.0 W/m2 CLR
06:12 1.1 °C -6.2 °C 1027.3 hPa WNW 22.2 km/h 22.2 km/h 58 % 0.0 mm 0.0 W/m2 CLR
06:17 1.1 °C -6.2 °C 1027.7 hPa West 24.1 km/h 24.1 km/h 58 % 0.0 mm 0.0 W/m2 CLR
06:27 1.1 °C -6.5 °C 1027.7 hPa WNW 20.4 km/h 20.4 km/h 57 % 0.0 mm 0.0 W/m2 CLR
06:32 1.1 °C -6.5 °C 1027.7 hPa WNW 25.9 km/h 25.9 km/h 57 % 0.0 mm 0.0 W/m2 CLR
06:37 0.6 °C -7.0 °C 1027.7 hPa WNW 29.6 km/h 29.6 km/h 57 % 0.0 mm 0.0 W/m2 CLR
06:42 1.1 °C -6.7 °C 1028.0 hPa WNW 27.8 km/h 27.8 km/h 56 % 0.0 mm 0.0 W/m2 CLR
06:47 1.1 °C -6.7 °C 1028.0 hPa WNW 29.6 km/h 29.6 km/h 56 % 0.0 mm 0.0 W/m2 CLR
06:52 0.6 °C -7.4 °C 1028.0 hPa WNW 27.8 km/h 27.8 km/h 55 % 0.0 mm 0.0 W/m2 CLR
06:57 1.1 °C -6.9 °C 1028.0 hPa West 31.5 km/h 31.5 km/h 55 % 0.0 mm 0.0 W/m2 CLR
07:07 1.1 °C -6.9 °C 1028.3 hPa NW 18.5 km/h 18.5 km/h 55 % 0.0 mm 0.0 W/m2 CLR
07:12 1.1 °C -6.9 °C 1028.3 hPa WNW 20.4 km/h 20.4 km/h 55 % 0.0 mm 0.0 W/m2 CLR
07:17 1.1 °C -7.2 °C 1028.3 hPa NW 31.5 km/h 31.5 km/h 54 % 0.0 mm 0.0 W/m2 CLR
07:22 1.1 °C -7.2 °C 1028.7 hPa NW 24.1 km/h 24.1 km/h 54 % 0.0 mm 0.0 W/m2 CLR
07:28 1.1 °C -7.2 °C 1028.7 hPa West 22.2 km/h 22.2 km/h 54 % 0.0 mm 0.0 W/m2 CLR
07:32 1.1 °C -7.2 °C 1028.7 hPa West 24.1 km/h 24.5 km/h 54 % 0.0 mm 0.0 W/m2 CLR
07:38 1.1 °C -7.2 °C 1028.7 hPa NW 22.2 km/h 22.2 km/h 54 % 0.0 mm 0.0 W/m2 CLR
07:43 1.1 °C -7.4 °C 1029.0 hPa NW 31.5 km/h 31.5 km/h 53 % 0.0 mm 0.0 W/m2 CLR
07:48 1.1 °C -7.4 °C 1029.0 hPa NW 27.8 km/h 27.8 km/h 53 % 0.0 mm 0.0 W/m2 CLR
07:53 1.1 °C -7.4 °C 1029.0 hPa WNW 31.5 km/h 31.5 km/h 53 % 0.0 mm 0.0 W/m2 CLR
08:03 1.1 °C -7.7 °C 1029.0 hPa WNW 31.5 km/h 31.5 km/h 52 % 0.0 mm 0.0 W/m2 OVC
08:08 1.1 °C -7.7 °C 1029.0 hPa WNW 24.1 km/h 24.1 km/h 52 % 0.0 mm 5.0 W/m2 OVC
08:13 1.1 °C -7.7 °C 1029.0 hPa WNW 27.8 km/h 27.8 km/h 52 % 0.0 mm 7.0 W/m2 BKN
08:18 1.1 °C -7.7 °C 1029.0 hPa NW 25.9 km/h 25.9 km/h 52 % 0.0 mm 9.0 W/m2 BKN
08:23 1.1 °C -7.7 °C 1029.0 hPa NW 27.8 km/h 27.8 km/h 52 % 0.0 mm 11.0 W/m2 BKN
08:28 1.7 °C -7.4 °C 1029.3 hPa NW 31.5 km/h 31.5 km/h 51 % 0.0 mm 14.0 W/m2 BKN
08:38 1.7 °C -7.4 °C 1029.3 hPa WNW 31.5 km/h 31.5 km/h 51 % 0.0 mm 21.0 W/m2 BKN
08:43 1.7 °C -7.7 °C 1029.7 hPa NW 31.5 km/h 31.5 km/h 50 % 0.0 mm 32.0 W/m2 BKN
08:48 1.7 °C -7.7 °C 1029.7 hPa WNW 31.5 km/h 31.5 km/h 50 % 0.0 mm 42.0 W/m2 BKN
08:53 1.7 °C -7.7 °C 1029.7 hPa NW 24.1 km/h 24.1 km/h 50 % 0.0 mm 54.0 W/m2 SCT
08:58 1.7 °C -7.7 °C 1029.7 hPa WNW 25.9 km/h 25.9 km/h 50 % 0.0 mm 65.0 W/m2 SCT
09:04 1.7 °C -7.7 °C 1029.7 hPa WNW 25.9 km/h 25.9 km/h 50 % 0.0 mm 77.0 W/m2 FEW
09:14 2.2 °C -7.4 °C 1030.0 hPa WNW 25.9 km/h 25.9 km/h 49 % 0.0 mm 83.0 W/m2 FEW
09:19 2.2 °C -7.4 °C 1030.0 hPa NNW 24.1 km/h 24.1 km/h 49 % 0.0 mm 95.0 W/m2 FEW
09:24 2.2 °C -7.7 °C 1030.0 hPa WNW 19.3 km/h 19.3 km/h 48 % 0.0 mm 132.0 W/m2 CLR
09:29 2.2 °C -7.7 °C 1030.0 hPa NW 18.5 km/h 18.5 km/h 48 % 0.0 mm 146.0 W/m2 CLR
09:39 2.8 °C -7.4 °C 1030.4 hPa West 29.6 km/h 29.6 km/h 47 % 0.0 mm 176.0 W/m2 CLR
09:44 2.8 °C -7.4 °C 1030.4 hPa NW 31.5 km/h 31.5 km/h 47 % 0.0 mm 190.0 W/m2 CLR
09:59 3.3 °C -7.2 °C 1030.7 hPa NW 18.5 km/h 18.5 km/h 46 % 0.0 mm 158.0 W/m2 CLR
10:04 3.3 °C -7.5 °C 1030.7 hPa NW 29.6 km/h 29.6 km/h 45 % 0.0 mm 239.0 W/m2 CLR
10:09 3.3 °C -7.5 °C 1030.7 hPa WNW 25.9 km/h 25.9 km/h 45 % 0.0 mm 258.0 W/m2 CLR
10:14 3.3 °C -7.8 °C 1031.0 hPa WNW 27.4 km/h 27.4 km/h 44 % 0.0 mm 272.0 W/m2 CLR
10:24 3.9 °C -7.3 °C 1031.0 hPa NW 35.2 km/h 35.2 km/h 44 % 0.0 mm 241.0 W/m2 CLR
10:29 3.9 °C -7.6 °C 1031.0 hPa NW 29.6 km/h 29.6 km/h 43 % 0.0 mm 304.0 W/m2 CLR
10:30 3.9 °C -7.6 °C 1031.0 hPa NW 31.5 km/h 31.5 km/h 43 % 0.0 mm 304.0 W/m2 CLR
10:35 3.9 °C -7.6 °C 1031.0 hPa WNW 29.6 km/h 29.6 km/h 43 % 0.0 mm 316.0 W/m2 CLR
10:45 4.4 °C -7.4 °C 1031.4 hPa NNW 37.0 km/h 37.0 km/h 42 % 0.0 mm 334.0 W/m2 CLR
10:50 4.4 °C -7.7 °C 1031.4 hPa NW 31.5 km/h 31.5 km/h 41 % 0.0 mm 343.0 W/m2 CLR
10:55 4.4 °C -7.4 °C 1031.4 hPa NW 25.9 km/h 25.9 km/h 42 % 0.0 mm 352.0 W/m2 CLR
11:00 4.4 °C -7.7 °C 1031.4 hPa NW 31.5 km/h 31.5 km/h 41 % 0.0 mm 360.0 W/m2 CLR
11:05 5.0 °C -7.2 °C 1031.4 hPa NW 31.5 km/h 31.5 km/h 41 % 0.0 mm 367.0 W/m2 CLR
11:10 5.0 °C -7.5 °C 1031.4 hPa NW 31.5 km/h 31.5 km/h 40 % 0.0 mm 374.0 W/m2 CLR
11:15 5.0 °C -7.5 °C 1031.7 hPa NW 25.9 km/h 25.9 km/h 40 % 0.0 mm 383.0 W/m2 CLR
11:20 5.0 °C -7.8 °C 1031.7 hPa WNW 25.7 km/h 25.7 km/h 39 % 0.0 mm 392.0 W/m2 CLR
11:25 5.0 °C -7.8 °C 1031.7 hPa NW 31.5 km/h 31.5 km/h 39 % 0.0 mm 397.0 W/m2 CLR
11:30 5.6 °C -7.3 °C 1031.7 hPa NW 31.5 km/h 31.5 km/h 39 % 0.0 mm 403.0 W/m2 CLR
11:35 5.6 °C -7.3 °C 1031.7 hPa NNW 33.3 km/h 33.3 km/h 39 % 0.0 mm 410.0 W/m2 CLR
11:40 5.6 °C -7.3 °C 1031.7 hPa NW 29.6 km/h 29.6 km/h 39 % 0.0 mm 417.0 W/m2 CLR
11:45 5.6 °C -7.7 °C 1031.7 hPa NW 29.6 km/h 29.6 km/h 38 % 0.0 mm 420.0 W/m2 CLR
11:50 5.6 °C -7.7 °C 1031.7 hPa NW 25.9 km/h 25.9 km/h 38 % 0.0 mm 425.0 W/m2 CLR
11:55 6.1 °C -7.2 °C 1031.7 hPa NW 24.1 km/h 24.1 km/h 38 % 0.0 mm 431.0 W/m2 CLR
12:00 6.1 °C -7.5 °C 1031.7 hPa NW 25.7 km/h 25.7 km/h 37 % 0.0 mm 436.0 W/m2 CLR
12:05 6.1 °C -7.5 °C 1031.7 hPa NNW 29.6 km/h 29.6 km/h 37 % 0.0 mm 441.0 W/m2 CLR
12:10 6.1 °C -7.5 °C 1031.7 hPa NW 29.6 km/h 29.6 km/h 37 % 0.0 mm 448.0 W/m2 CLR
12:15 6.1 °C -7.9 °C 1031.7 hPa NW 25.9 km/h 25.9 km/h 36 % 0.0 mm 436.0 W/m2 CLR
12:20 6.1 °C -7.9 °C 1031.4 hPa NNW 30.6 km/h 30.6 km/h 36 % 0.0 mm 394.0 W/m2 CLR
12:25 6.7 °C -7.7 °C 1031.4 hPa NNW 35.2 km/h 35.2 km/h 35 % 0.0 mm 452.0 W/m2 CLR
12:30 6.7 °C -7.4 °C 1031.4 hPa NW 31.5 km/h 31.5 km/h 36 % 0.0 mm 457.0 W/m2 CLR
12:35 6.7 °C -7.7 °C 1031.4 hPa NW 42.6 km/h 42.6 km/h 35 % 0.0 mm 457.0 W/m2 CLR
12:40 6.7 °C -7.7 °C 1031.4 hPa WNW 31.5 km/h 31.5 km/h 35 % 0.0 mm 459.0 W/m2 CLR
12:45 6.7 °C -7.7 °C 1031.4 hPa NW 33.3 km/h 33.3 km/h 35 % 0.0 mm 461.0 W/m2 CLR
12:50 7.2 °C -7.6 °C 1031.4 hPa WNW 20.9 km/h 20.9 km/h 34 % 0.0 mm 415.0 W/m2 CLR
12:55 7.2 °C -7.6 °C 1031.0 hPa North 27.8 km/h 27.8 km/h 34 % 0.0 mm 461.0 W/m2 CLR
13:00 7.2 °C -7.6 °C 1031.0 hPa NNW 27.8 km/h 27.8 km/h 34 % 0.0 mm 438.0 W/m2 CLR
13:05 7.2 °C -7.2 °C 1031.0 hPa NW 25.9 km/h 25.9 km/h 35 % 0.0 mm 459.0 W/m2 CLR
13:10 7.2 °C -7.6 °C 1031.0 hPa North 29.6 km/h 29.6 km/h 34 % 0.0 mm 455.0 W/m2 CLR
13:16 7.8 °C -7.1 °C 1031.0 hPa NW 33.3 km/h 33.3 km/h 34 % 0.0 mm 455.0 W/m2 CLR
13:21 7.8 °C -7.1 °C 1031.0 hPa NNW 29.0 km/h 29.0 km/h 34 % 0.0 mm 450.0 W/m2 CLR
13:26 7.8 °C -7.5 °C 1030.7 hPa NW 27.8 km/h 27.8 km/h 33 % 0.0 mm 446.0 W/m2 CLR
13:31 7.8 °C -7.5 °C 1030.7 hPa NNW 29.6 km/h 29.6 km/h 33 % 0.0 mm 445.0 W/m2 CLR
13:36 7.8 °C -7.9 °C 1030.7 hPa NNW 33.3 km/h 33.3 km/h 32 % 0.0 mm 443.0 W/m2 CLR
13:41 7.8 °C -7.9 °C 1031.0 hPa NW 27.8 km/h 27.8 km/h 32 % 0.0 mm 439.0 W/m2 CLR
13:46 7.8 °C -7.9 °C 1030.7 hPa NNW 25.9 km/h 25.9 km/h 32 % 0.0 mm 441.0 W/m2 CLR
13:51 8.3 °C -7.8 °C 1030.7 hPa North 29.6 km/h 29.6 km/h 31 % 0.0 mm 448.0 W/m2 CLR
13:56 8.3 °C -7.8 °C 1030.7 hPa NNW 31.5 km/h 31.5 km/h 31 % 0.0 mm 445.0 W/m2 CLR
14:01 8.3 °C -7.8 °C 1030.7 hPa NNW 31.5 km/h 31.5 km/h 31 % 0.0 mm 431.0 W/m2 CLR
14:06 8.3 °C -7.8 °C 1030.7 hPa NNW 33.3 km/h 33.3 km/h 31 % 0.0 mm 299.0 W/m2 CLR
14:11 8.3 °C -7.8 °C 1030.7 hPa NNW 27.8 km/h 27.8 km/h 31 % 0.0 mm 411.0 W/m2 CLR
14:16 8.3 °C -7.8 °C 1030.7 hPa NNW 22.2 km/h 22.2 km/h 31 % 0.0 mm 404.0 W/m2 CLR
14:21 8.9 °C -7.8 °C 1030.7 hPa North 31.5 km/h 31.5 km/h 30 % 0.0 mm 397.0 W/m2 CLR
14:26 8.3 °C -8.3 °C 1030.7 hPa NNW 35.2 km/h 35.2 km/h 30 % 0.0 mm 390.0 W/m2 CLR
14:31 8.3 °C -8.3 °C 1030.7 hPa NW 33.3 km/h 33.3 km/h 30 % 0.0 mm 383.0 W/m2 CLR
14:36 8.9 °C -7.8 °C 1030.4 hPa North 29.0 km/h 29.0 km/h 30 % 0.0 mm 374.0 W/m2 CLR
14:41 8.9 °C -7.8 °C 1030.7 hPa NW 31.5 km/h 31.5 km/h 30 % 0.0 mm 366.0 W/m2 CLR
14:46 8.3 °C -8.3 °C 1030.7 hPa NNW 31.5 km/h 31.5 km/h 30 % 0.0 mm 355.0 W/m2 CLR
14:51 8.3 °C -8.3 °C 1030.7 hPa NNW 29.6 km/h 29.6 km/h 30 % 0.0 mm 348.0 W/m2 CLR
14:56 8.9 °C -7.3 °C 1030.7 hPa NW 29.6 km/h 29.6 km/h 31 % 0.0 mm 339.0 W/m2 CLR
15:01 8.3 °C -7.8 °C 1030.7 hPa North 31.5 km/h 31.5 km/h 31 % 0.0 mm 329.0 W/m2 CLR
15:06 8.3 °C -7.8 °C 1030.7 hPa NNW 31.5 km/h 31.5 km/h 31 % 0.0 mm 318.0 W/m2 CLR
15:11 8.3 °C -7.8 °C 1030.4 hPa NNW 29.6 km/h 29.6 km/h 31 % 0.0 mm 308.0 W/m2 CLR
15:16 8.3 °C -7.8 °C 1030.7 hPa WNW 24.1 km/h 24.1 km/h 31 % 0.0 mm 299.0 W/m2 CLR
15:21 8.3 °C -7.8 °C 1030.7 hPa NW 33.3 km/h 33.3 km/h 31 % 0.0 mm 287.0 W/m2 CLR
15:23 8.3 °C -7.8 °C 1030.7 hPa NNW 27.8 km/h 27.8 km/h 31 % 0.0 mm 283.0 W/m2 CLR
15:28 8.3 °C -7.8 °C 1030.7 hPa NW 24.1 km/h 24.1 km/h 31 % 0.0 mm 272.0 W/m2 CLR
15:33 8.3 °C -7.8 °C 1031.0 hPa NNW 29.6 km/h 29.6 km/h 31 % 0.0 mm 258.0 W/m2 CLR
15:38 8.3 °C -7.8 °C 1030.7 hPa NNW 31.5 km/h 31.5 km/h 31 % 0.0 mm 246.0 W/m2 CLR
15:43 8.3 °C -7.8 °C 1030.7 hPa NNW 29.6 km/h 29.6 km/h 31 % 0.0 mm 232.0 W/m2 CLR
15:48 7.8 °C -7.9 °C 1030.7 hPa NW 27.8 km/h 27.8 km/h 32 % 0.0 mm 220.0 W/m2 CLR
15:53 7.8 °C -7.9 °C 1030.7 hPa NNW 33.3 km/h 33.3 km/h 32 % 0.0 mm 207.0 W/m2 CLR
15:58 7.8 °C -7.9 °C 1030.7 hPa NNW 29.6 km/h 29.6 km/h 32 % 0.0 mm 193.0 W/m2 CLR
16:03 7.2 °C -8.4 °C 1030.7 hPa NNW 33.3 km/h 33.3 km/h 32 % 0.0 mm 176.0 W/m2 CLR
16:08 7.2 °C -8.0 °C 1030.7 hPa NNW 29.6 km/h 29.6 km/h 33 % 0.0 mm 160.0 W/m2 CLR
16:13 7.2 °C -8.0 °C 1031.0 hPa NNW 31.5 km/h 31.5 km/h 33 % 0.0 mm 146.0 W/m2 CLR
16:14 7.2 °C -8.0 °C 1031.0 hPa NW 31.5 km/h 31.5 km/h 33 % 0.0 mm 144.0 W/m2 CLR
16:19 7.2 °C -8.0 °C 1031.0 hPa NW 31.5 km/h 31.5 km/h 33 % 0.0 mm 128.0 W/m2 CLR
16:24 7.2 °C -8.0 °C 1031.0 hPa NNW 27.8 km/h 27.8 km/h 33 % 0.0 mm 114.0 W/m2 CLR
16:29 7.2 °C -8.0 °C 1031.0 hPa North 25.7 km/h 25.7 km/h 33 % 0.0 mm 102.0 W/m2 CLR
16:34 7.2 °C -8.0 °C 1031.0 hPa NW 22.5 km/h 22.5 km/h 33 % 0.0 mm 90.0 W/m2 CLR
16:39 6.7 °C -8.5 °C 1031.0 hPa NW 33.3 km/h 33.3 km/h 33 % 0.0 mm 67.0 W/m2 FEW
16:44 6.7 °C -8.5 °C 1031.0 hPa NNW 31.5 km/h 31.5 km/h 33 % 0.0 mm 53.0 W/m2 SCT
16:49 6.7 °C -8.1 °C 1030.7 hPa NNW 30.6 km/h 30.6 km/h 34 % 0.0 mm 51.0 W/m2 SCT
16:54 6.7 °C -8.1 °C 1030.7 hPa NW 24.1 km/h 24.1 km/h 34 % 0.0 mm 26.0 W/m2 BKN
16:59 6.1 °C -8.6 °C 1030.7 hPa NW 25.9 km/h 25.9 km/h 34 % 0.0 mm 30.0 W/m2 BKN
17:04 6.1 °C -8.2 °C 1030.7 hPa NW 18.5 km/h 18.5 km/h 35 % 0.0 mm 12.0 W/m2 BKN
17:09 6.1 °C -7.9 °C 1031.0 hPa NW 27.8 km/h 27.8 km/h 36 % 0.0 mm 11.0 W/m2 BKN
17:14 6.1 °C -7.9 °C 1031.0 hPa NW 22.2 km/h 22.2 km/h 36 % 0.0 mm 9.0 W/m2 BKN
17:19 6.1 °C -7.9 °C 1031.0 hPa NNW 27.4 km/h 27.4 km/h 36 % 0.0 mm 7.0 W/m2 BKN
17:24 5.6 °C -8.4 °C 1031.0 hPa NW 20.4 km/h 20.4 km/h 36 % 0.0 mm 5.0 W/m2 OVC
17:29 5.6 °C -8.7 °C 1031.0 hPa NW 31.5 km/h 31.5 km/h 35 % 0.0 mm 5.0 W/m2 OVC
17:34 5.6 °C -8.7 °C 1031.0 hPa WNW 20.4 km/h 20.4 km/h 35 % 0.0 mm 0.0 W/m2 OVC
17:39 5.6 °C -8.7 °C 1031.4 hPa NW 20.4 km/h 20.4 km/h 35 % 0.0 mm 0.0 W/m2 OVC
17:44 5.0 °C -9.2 °C 1031.0 hPa WNW 18.5 km/h 18.5 km/h 35 % 0.0 mm 0.0 W/m2 CLR
17:49 5.0 °C -9.2 °C 1031.0 hPa WNW 24.1 km/h 24.1 km/h 35 % 0.0 mm 0.0 W/m2 CLR
17:54 5.0 °C -9.2 °C 1031.0 hPa NW 27.4 km/h 27.4 km/h 35 % 0.0 mm 0.0 W/m2 CLR
17:59 5.0 °C -9.2 °C 1031.4 hPa WNW 18.5 km/h 18.5 km/h 35 % 0.0 mm 0.0 W/m2 CLR
18:04 5.0 °C -9.2 °C 1031.4 hPa NW 18.5 km/h 18.5 km/h 35 % 0.0 mm 0.0 W/m2 CLR
18:09 4.4 °C -9.3 °C 1031.4 hPa WNW 20.4 km/h 20.4 km/h 36 % 0.0 mm 0.0 W/m2 CLR
18:14 4.4 °C -9.3 °C 1031.4 hPa NW 20.4 km/h 20.4 km/h 36 % 0.0 mm 0.0 W/m2 CLR
18:19 4.4 °C -9.3 °C 1031.7 hPa WNW 19.3 km/h 19.3 km/h 36 % 0.0 mm 0.0 W/m2 CLR
18:24 4.4 °C -9.0 °C 1031.7 hPa NW 24.1 km/h 24.1 km/h 37 % 0.0 mm 0.0 W/m2 CLR
18:29 3.9 °C -9.5 °C 1031.7 hPa NW 22.2 km/h 22.2 km/h 37 % 0.0 mm 0.0 W/m2 CLR
18:34 4.4 °C -8.7 °C 1031.7 hPa NW 24.1 km/h 24.1 km/h 38 % 0.0 mm 0.0 W/m2 CLR
18:39 4.4 °C -8.3 °C 1031.7 hPa WNW 18.5 km/h 18.5 km/h 39 % 0.0 mm 0.0 W/m2 CLR
18:44 4.4 °C -8.3 °C 1031.7 hPa NW 14.8 km/h 14.8 km/h 39 % 0.0 mm 0.0 W/m2 CLR
18:49 4.4 °C -8.3 °C 1031.7 hPa WNW 20.4 km/h 20.4 km/h 39 % 0.0 mm 0.0 W/m2 CLR
18:54 4.4 °C -8.3 °C 1031.7 hPa WNW 22.2 km/h 22.2 km/h 39 % 0.0 mm 0.0 W/m2 CLR
18:59 3.9 °C -8.5 °C 1031.7 hPa WNW 20.4 km/h 20.4 km/h 40 % 0.0 mm 0.0 W/m2 CLR
19:04 3.9 °C -8.5 °C 1032.1 hPa WSW 1.9 km/h   40 % 0.0 mm 0.0 W/m2 CLR
19:09 3.9 °C -8.5 °C 1032.1 hPa West 3.2 km/h 3.7 km/h 40 % 0.0 mm 0.0 W/m2 CLR
19:14 3.9 °C -7.6 °C 1032.1 hPa WNW 16.7 km/h 16.7 km/h 43 % 0.0 mm 0.0 W/m2 CLR
19:19 3.3 °C -7.8 °C 1032.1 hPa NW 20.4 km/h 20.4 km/h 44 % 0.0 mm 0.0 W/m2 CLR
19:24 2.8 °C -8.0 °C 1032.1 hPa NW 18.5 km/h 18.5 km/h 45 % 0.0 mm 0.0 W/m2 CLR
19:29 2.2 °C -8.5 °C 1032.4 hPa WNW 14.8 km/h 14.8 km/h 45 % 0.0 mm 0.0 W/m2 CLR
19:34 1.7 °C -9.0 °C 1032.1 hPa WNW 13.0 km/h 13.0 km/h 45 % 0.0 mm 0.0 W/m2 CLR
19:39 1.1 °C -9.5 °C 1032.1 hPa West 9.7 km/h 9.7 km/h 45 % 0.0 mm 0.0 W/m2 CLR
19:44 1.1 °C -9.5 °C 1032.4 hPa West 13.0 km/h 13.0 km/h 45 % 0.0 mm 0.0 W/m2 CLR
19:49 2.8 °C -7.7 °C 1032.4 hPa West 14.8 km/h 14.8 km/h 46 % 0.0 mm 0.0 W/m2 CLR
19:54 2.8 °C -7.4 °C 1032.4 hPa WNW 5.6 km/h 5.6 km/h 47 % 0.0 mm 0.0 W/m2 CLR
19:59 2.2 °C -7.7 °C 1032.4 hPa West 7.4 km/h 8.4 km/h 48 % 0.0 mm 0.0 W/m2 CLR
20:04 1.7 °C -7.9 °C 1032.4 hPa West 11.1 km/h 11.1 km/h 49 % 0.0 mm 0.0 W/m2 CLR
20:09 1.1 °C -8.4 °C 1032.4 hPa West 9.3 km/h 9.3 km/h 49 % 0.0 mm 0.0 W/m2 CLR
20:14 0.6 °C -8.7 °C 1032.4 hPa West 14.8 km/h 14.8 km/h 50 % 0.0 mm 0.0 W/m2 CLR
20:19 0.0 °C -8.9 °C 1032.7 hPa West 14.8 km/h 14.8 km/h 51 % 0.0 mm 0.0 W/m2 CLR
20:29 0.0 °C -8.7 °C 1032.4 hPa WNW 16.7 km/h 16.7 km/h 52 % 0.0 mm 0.0 W/m2 CLR
20:34 0.6 °C -7.9 °C 1032.4 hPa West 22.5 km/h 22.5 km/h 53 % 0.0 mm 0.0 W/m2 CLR
20:39 1.1 °C -7.2 °C 1032.4 hPa West 18.5 km/h 18.5 km/h 54 % 0.0 mm 0.0 W/m2 CLR
20:44 1.7 °C -6.7 °C 1032.7 hPa West 25.7 km/h 25.7 km/h 54 % 0.0 mm 0.0 W/m2 CLR
20:49 2.8 °C -5.4 °C 1032.7 hPa West 16.7 km/h 16.7 km/h 55 % 0.0 mm 0.0 W/m2 CLR
20:55 3.3 °C -4.6 °C 1032.7 hPa West 14.8 km/h 14.8 km/h 56 % 0.0 mm 0.0 W/m2 CLR
21:00 2.8 °C -4.9 °C 1032.7 hPa West 18.5 km/h 18.5 km/h 57 % 0.0 mm 0.0 W/m2 CLR
21:05 2.8 °C -4.7 °C 1032.7 hPa West 19.3 km/h 19.3 km/h 58 % 0.0 mm 0.0 W/m2 CLR
21:10 2.8 °C -4.4 °C 1032.7 hPa WNW 16.7 km/h 16.7 km/h 59 % 0.0 mm 0.0 W/m2 CLR
21:15 2.8 °C -4.2 °C 1032.7 hPa WNW 20.4 km/h 20.4 km/h 60 % 0.0 mm 0.0 W/m2 CLR
21:20 2.2 °C -4.6 °C 1032.7 hPa West 19.3 km/h 19.3 km/h 61 % 0.0 mm 0.0 W/m2 CLR
21:25 2.2 °C -4.3 °C 1032.7 hPa WNW 22.2 km/h 22.2 km/h 62 % 0.0 mm 0.0 W/m2 CLR
21:30 2.8 °C -3.6 °C 1032.7 hPa NW 20.4 km/h 20.4 km/h 63 % 0.0 mm 0.0 W/m2 CLR
21:35 2.8 °C -3.6 °C 1032.7 hPa WNW 22.2 km/h 22.2 km/h 63 % 0.0 mm 0.0 W/m2 CLR
21:40 3.3 °C -3.1 °C 1033.1 hPa WNW 22.5 km/h 22.5 km/h 63 % 0.0 mm 0.0 W/m2 CLR
21:45 3.3 °C -2.8 °C 1033.1 hPa NW 20.4 km/h 20.4 km/h 64 % 0.0 mm 0.0 W/m2 CLR
21:50 3.3 °C -2.8 °C 1033.1 hPa WNW 20.9 km/h 20.9 km/h 64 % 0.0 mm 0.0 W/m2 CLR
21:55 2.8 °C -3.2 °C 1033.1 hPa WNW 20.4 km/h 20.4 km/h 65 % 0.0 mm 0.0 W/m2 CLR
22:00 2.8 °C -3.2 °C 1033.1 hPa WNW 20.4 km/h 20.4 km/h 65 % 0.0 mm 0.0 W/m2 CLR
22:05 2.8 °C -2.9 °C 1033.1 hPa WNW 20.4 km/h 20.4 km/h 66 % 0.0 mm 0.0 W/m2 CLR
22:10 3.3 °C -2.4 °C 1033.1 hPa NW 20.4 km/h 20.4 km/h 66 % 0.0 mm 0.0 W/m2 CLR
22:15 3.3 °C -2.4 °C 1033.1 hPa West 20.4 km/h 20.4 km/h 66 % 0.0 mm 0.0 W/m2 CLR
22:20 2.8 °C -2.9 °C 1033.1 hPa WNW 20.9 km/h 20.9 km/h 66 % 0.0 mm 0.0 W/m2 CLR
22:25 2.8 °C -2.9 °C 1033.4 hPa WNW 18.5 km/h 18.5 km/h 66 % 0.0 mm 0.0 W/m2 CLR
22:30 2.8 °C -2.9 °C 1033.4 hPa West 14.8 km/h 14.8 km/h 66 % 0.0 mm 0.0 W/m2 CLR
22:35 2.8 °C -2.7 °C 1033.4 hPa West 11.1 km/h 11.1 km/h 67 % 0.0 mm 0.0 W/m2 CLR
22:40 2.2 °C -3.1 °C 1033.4 hPa WNW 9.7 km/h 9.7 km/h 68 % 0.0 mm 0.0 W/m2 CLR
22:45 1.7 °C -3.6 °C 1033.4 hPa West 9.3 km/h 9.3 km/h 68 % 0.0 mm 0.0 W/m2 CLR
22:50 1.1 °C -4.2 °C 1033.4 hPa West 13.0 km/h 13.0 km/h 68 % 0.0 mm 0.0 W/m2 CLR
22:55 0.0 °C -5.2 °C 1033.7 hPa West 13.0 km/h 13.0 km/h 68 % 0.0 mm 0.0 W/m2 CLR
23:00 0.0 °C -5.0 °C 1033.7 hPa West 13.0 km/h 13.0 km/h 69 % 0.0 mm 0.0 W/m2 CLR
23:05 -0.6 °C -5.6 °C 1033.7 hPa West 9.7 km/h 9.7 km/h 69 % 0.0 mm 0.0 W/m2 CLR
23:10 -1.1 °C -6.1 °C 1033.7 hPa West 11.1 km/h 11.1 km/h 69 % 0.0 mm 0.0 W/m2 CLR
23:15 -1.1 °C -6.1 °C 1033.7 hPa West 5.6 km/h 5.6 km/h 69 % 0.0 mm 0.0 W/m2 CLR
23:20 -1.7 °C -6.4 °C 1034.1 hPa West 9.3 km/h 9.3 km/h 70 % 0.0 mm 0.0 W/m2 CLR
23:25 -2.2 °C -6.8 °C 1034.1 hPa West 9.3 km/h 9.3 km/h 71 % 0.0 mm 0.0 W/m2 CLR
23:30 -2.2 °C -6.8 °C 1034.1 hPa WNW 9.3 km/h 9.3 km/h 71 % 0.0 mm 0.0 W/m2 CLR
23:35 -2.2 °C -6.8 °C 1034.1 hPa West 11.1 km/h 11.1 km/h 71 % 0.0 mm 0.0 W/m2 CLR
23:40 -2.8 °C -7.3 °C 1034.1 hPa West 7.4 km/h 7.4 km/h 71 % 0.0 mm 0.0 W/m2 CLR
23:42 -2.8 °C -7.3 °C 1034.4 hPa WSW 6.4 km/h 6.4 km/h 71 % 0.0 mm 0.0 W/m2 CLR
23:47 -2.8 °C -7.1 °C 1034.4 hPa WSW 7.4 km/h 7.9 km/h 72 % 0.0 mm 0.0 W/m2 CLR
23:52 -2.8 °C -7.1 °C 1034.4 hPa West 5.6 km/h 5.6 km/h 72 % 0.0 mm 0.0 W/m2 CLR
23:57 -2.8 °C -6.9 °C 1034.4 hPa WNW 9.3 km/h 9.3 km/h 73 % 0.0 mm 0.0 W/m2 CLR
Lo Temps de Massalio
Compliments of Weather Underground - 1 mb